Time;durP1;ratioP1;P1;durP2;ratioP2;P2;SDS_P1;SDS_P2;PMS_P1;PMS_P2;Temp;Humidity;BMP_temperature;BMP_pressure;BME280_temperature;BME280_humidity;BME280_pressure;Samples;Min_cycle;Max_cycle;Signal;HPM_P1;HPM_P2
2021/07/08 00:01:05;;;;;;;3.83;3.53;;;18.10;99.80;;;;;;4925453;28;20468;-91
2021/07/08 00:03:33;;;;;;;5.00;3.20;;;18.10;99.80;;;;;;4932917;29;20487;-91
2021/07/08 00:06:01;;;;;;;9.60;3.57;;;18.10;99.80;;;;;;4932201;29;20990;-91
2021/07/08 00:08:30;;;;;;;3.87;3.50;;;18.10;99.80;;;;;;4923267;29;20465;-92
2021/07/08 00:10:59;;;;;;;4.97;3.60;;;18.10;99.80;;;;;;4929419;29;20476;-91
2021/07/08 00:13:29;;;;;;;4.53;4.13;;;18.10;99.80;;;;;;4922570;29;20483;-91
2021/07/08 00:15:58;;;;;;;4.73;3.67;;;18.10;99.80;;;;;;4925640;29;20469;-92
2021/07/08 00:18:28;;;;;;;3.87;3.20;;;18.10;99.80;;;;;;4924835;29;20491;-91
2021/07/08 00:20:56;;;;;;;3.63;3.43;;;18.10;99.80;;;;;;4928974;29;20479;-90
2021/07/08 00:23:25;;;;;;;3.33;3.03;;;18.10;99.80;;;;;;4924441;29;20991;-91
2021/07/08 00:25:55;;;;;;;5.97;3.70;;;18.10;99.80;;;;;;4929694;29;20481;-92
2021/07/08 00:28:25;;;;;;;3.90;3.50;;;18.00;99.80;;;;;;4928452;29;20477;-91
2021/07/08 00:30:53;;;;;;;5.13;3.80;;;18.00;99.80;;;;;;4929552;29;20473;-91
2021/07/08 00:33:22;;;;;;;4.23;3.90;;;17.90;99.80;;;;;;4930943;29;20575;-91
2021/07/08 00:35:51;;;;;;;7.73;4.03;;;17.90;99.80;;;;;;4930737;29;20468;-90
2021/07/08 00:38:19;;;;;;;4.33;4.03;;;17.80;99.80;;;;;;4928456;29;20477;-91
2021/07/08 00:40:47;;;;;;;9.50;4.30;;;17.80;99.80;;;;;;4924799;29;20564;-91
2021/07/08 00:43:16;;;;;;;4.50;4.20;;;17.80;99.80;;;;;;4921989;29;20487;-91
2021/07/08 00:45:49;;;;;;;7.87;4.40;;;17.80;99.80;;;;;;4926762;29;20991;-91
2021/07/08 00:48:17;;;;;;;4.53;3.77;;;17.80;99.80;;;;;;4930491;29;20908;-90
2021/07/08 00:50:47;;;;;;;6.50;4.13;;;17.80;99.80;;;;;;4921935;29;20484;-90
2021/07/08 00:53:16;;;;;;;6.53;4.50;;;17.80;99.80;;;;;;4924075;29;20586;-91
2021/07/08 00:55:48;;;;;;;6.53;4.10;;;17.80;99.80;;;;;;4929335;29;20472;-90
2021/07/08 00:58:16;;;;;;;4.87;4.47;;;17.70;99.80;;;;;;4923619;29;20481;-91
2021/07/08 01:00:45;;;;;;;5.40;4.90;;;17.70;99.80;;;;;;4916795;28;20484;-91
2021/07/08 01:03:15;;;;;;;5.93;4.70;;;17.70;99.80;;;;;;4935276;29;20891;-90
2021/07/08 01:05:46;;;;;;;5.00;4.50;;;17.70;99.80;;;;;;4929779;29;21010;-90
2021/07/08 01:08:14;;;;;;;5.53;4.00;;;17.70;99.80;;;;;;4928964;29;20467;-91
2021/07/08 01:10:43;;;;;;;4.67;4.23;;;17.80;99.80;;;;;;4912316;29;20480;-91
2021/07/08 01:13:11;;;;;;;4.27;3.83;;;17.80;99.80;;;;;;4922636;28;20526;-90
2021/07/08 01:15:40;;;;;;;3.83;3.33;;;17.80;99.80;;;;;;4927513;28;20568;-91
2021/07/08 01:18:09;;;;;;;7.00;4.37;;;17.80;99.80;;;;;;4929823;29;20844;-91
2021/07/08 01:20:39;;;;;;;4.23;3.27;;;17.80;99.80;;;;;;4926322;29;20584;-91
2021/07/08 01:23:09;;;;;;;3.60;3.33;;;17.80;99.80;;;;;;4921352;29;20476;-91
2021/07/08 01:25:39;;;;;;;3.37;3.17;;;17.70;99.80;;;;;;4927761;29;20481;-91
2021/07/08 01:28:09;;;;;;;5.57;3.97;;;17.70;99.80;;;;;;4937478;29;20836;-91
2021/07/08 01:30:38;;;;;;;4.10;3.60;;;17.70;99.80;;;;;;4925439;29;20594;-90
2021/07/08 01:33:07;;;;;;;5.63;4.17;;;17.60;99.80;;;;;;4929601;29;20498;-91
2021/07/08 01:35:36;;;;;;;10.40;4.07;;;17.50;99.80;;;;;;4928563;29;20476;-91
2021/07/08 01:38:05;;;;;;;5.60;3.67;;;17.40;99.80;;;;;;4925447;29;20477;-90
2021/07/08 01:40:35;;;;;;;4.57;3.50;;;17.40;99.80;;;;;;4925269;29;20476;-91
2021/07/08 01:43:03;;;;;;;3.03;2.80;;;17.30;99.80;;;;;;4924934;29;20481;-90
2021/07/08 01:45:31;;;;;;;3.60;3.30;;;17.30;99.80;;;;;;4929437;29;20473;-90
2021/07/08 01:47:59;;;;;;;3.53;3.23;;;17.30;99.80;;;;;;4932055;29;20477;-91
2021/07/08 01:50:28;;;;;;;3.63;3.33;;;17.20;99.80;;;;;;4930692;29;20488;-91
2021/07/08 01:52:56;;;;;;;6.30;3.60;;;17.20;99.80;;;;;;4926839;29;20483;-91
2021/07/08 01:55:24;;;;;;;5.90;3.20;;;17.20;99.80;;;;;;4927724;29;20618;-90
2021/07/08 01:57:56;;;;;;;4.00;3.60;;;17.20;99.80;;;;;;4923399;29;20477;-90
2021/07/08 02:00:26;;;;;;;6.23;3.87;;;17.10;99.80;;;;;;4926798;28;20476;-91
2021/07/08 02:02:54;;;;;;;5.77;3.63;;;17.10;99.80;;;;;;4938228;29;20478;-91
2021/07/08 02:09:21;;;;;;;4.23;3.83;;;17.00;99.80;;;;;;4937004;29;20396;-90
2021/07/08 02:11:49;;;;;;;8.87;3.67;;;17.00;99.80;;;;;;4936846;29;20475;-90
2021/07/08 02:14:18;;;;;;;5.73;3.87;;;17.00;99.80;;;;;;4936452;29;20480;-89
2021/07/08 02:16:46;;;;;;;11.00;3.70;;;17.00;99.80;;;;;;4936567;29;20446;-90
2021/07/08 02:19:15;;;;;;;3.80;3.40;;;16.90;99.80;;;;;;4907585;29;20563;-90
2021/07/08 02:21:43;;;;;;;6.10;3.50;;;16.90;99.80;;;;;;4922074;29;20480;-90
2021/07/08 02:24:10;;;;;;;6.07;3.90;;;16.80;99.80;;;;;;4926608;29;20980;-91
2021/07/08 02:26:38;;;;;;;5.40;4.37;;;16.70;99.80;;;;;;4918899;29;20476;-91
2021/07/08 02:29:07;;;;;;;4.97;4.47;;;16.70;99.80;;;;;;4923722;29;20479;-90
2021/07/08 02:31:37;;;;;;;4.63;4.17;;;16.60;99.80;;;;;;4930606;29;20479;-91
2021/07/08 02:34:05;;;;;;;8.53;4.23;;;16.50;99.80;;;;;;4928782;29;20535;-90
2021/07/08 02:36:33;;;;;;;10.57;4.20;;;16.50;99.80;;;;;;4925129;29;21042;-92
2021/07/08 02:39:01;;;;;;;5.30;4.43;;;16.50;99.80;;;;;;4927074;29;20483;-91
2021/07/08 02:41:29;;;;;;;4.40;4.10;;;16.50;99.80;;;;;;4926614;29;20488;-91
2021/07/08 02:43:57;;;;;;;5.17;4.50;;;16.50;99.80;;;;;;4928250;29;20507;-90
2021/07/08 02:46:25;;;;;;;6.70;4.60;;;16.60;99.80;;;;;;4930610;29;20488;-91
2021/07/08 02:48:54;;;;;;;5.40;4.83;;;16.60;99.80;;;;;;4932142;29;20484;-90
2021/07/08 02:51:22;;;;;;;4.43;4.13;;;16.70;99.80;;;;;;4931608;29;20502;-90
2021/07/08 02:53:50;;;;;;;4.63;3.33;;;16.70;99.80;;;;;;4929833;29;20485;-90
2021/07/08 02:56:18;;;;;;;7.70;4.20;;;16.70;99.80;;;;;;4927836;29;20496;-91
2021/07/08 02:58:46;;;;;;;5.70;4.47;;;16.70;99.80;;;;;;4925595;29;20487;-90
2021/07/08 03:01:14;;;;;;;4.93;4.43;;;16.80;99.80;;;;;;4934722;29;20467;-90
2021/07/08 03:03:42;;;;;;;4.73;4.17;;;16.80;99.80;;;;;;4932095;29;20483;-90
2021/07/08 03:06:12;;;;;;;4.43;4.03;;;16.80;99.80;;;;;;4926752;29;20591;-90
2021/07/08 03:08:40;;;;;;;6.33;4.40;;;16.80;99.80;;;;;;4923199;29;20551;-91
2021/07/08 03:11:08;;;;;;;4.20;3.80;;;16.80;99.80;;;;;;4924924;29;20487;-91
2021/07/08 03:13:38;;;;;;;4.47;4.07;;;16.90;99.80;;;;;;4926070;29;20527;-91
2021/07/08 03:16:06;;;;;;;4.03;3.50;;;16.80;99.80;;;;;;4919272;29;20554;-91
2021/07/08 03:18:34;;;;;;;3.67;3.37;;;16.80;99.80;;;;;;4923574;29;20543;-90
2021/07/08 03:21:02;;;;;;;5.47;4.13;;;16.80;99.80;;;;;;4925668;29;20509;-92
2021/07/08 03:23:33;;;;;;;8.13;3.50;;;16.80;99.80;;;;;;4920837;29;20939;-90
2021/07/08 03:26:01;;;;;;;4.00;3.00;;;16.80;99.80;;;;;;4921336;29;21039;-92
2021/07/08 03:28:29;;;;;;;3.40;3.10;;;16.70;99.80;;;;;;4907475;29;20881;-91
2021/07/08 03:30:57;;;;;;;4.70;3.67;;;16.60;99.80;;;;;;4937536;29;20476;-91
2021/07/08 03:33:25;;;;;;;6.40;3.60;;;16.60;99.80;;;;;;4930247;29;21003;-90
2021/07/08 03:35:53;;;;;;;4.43;3.47;;;16.60;99.80;;;;;;4930214;29;20995;-90
2021/07/08 03:38:21;;;;;;;3.67;3.37;;;16.50;99.80;;;;;;4923387;29;20480;-90
2021/07/08 03:40:51;;;;;;;5.43;3.17;;;16.60;99.80;;;;;;4911346;29;20554;-91
2021/07/08 03:43:19;;;;;;;6.60;3.90;;;16.60;99.80;;;;;;4916767;29;20502;-91
2021/07/08 03:45:47;;;;;;;5.17;3.67;;;16.60;99.80;;;;;;4925886;29;20476;-90
2021/07/08 03:48:15;;;;;;;7.20;3.40;;;16.70;99.80;;;;;;4926107;29;20491;-90
2021/07/08 03:50:43;;;;;;;4.27;3.20;;;16.70;99.80;;;;;;4922992;29;20663;-90
2021/07/08 03:53:11;;;;;;;4.97;4.07;;;16.80;99.80;;;;;;4924833;29;20471;-91
2021/07/08 03:55:39;;;;;;;5.60;3.80;;;16.90;99.80;;;;;;4924582;29;20480;-90
2021/07/08 03:58:08;;;;;;;7.83;3.80;;;16.90;99.80;;;;;;4921824;29;20484;-90
2021/07/08 04:00:38;;;;;;;4.10;3.80;;;16.90;99.80;;;;;;4916204;28;20475;-90
2021/07/08 04:03:08;;;;;;;10.03;3.83;;;16.90;99.80;;;;;;4934026;29;20561;-91
2021/07/08 04:05:37;;;;;;;7.80;4.13;;;16.90;99.80;;;;;;4930668;29;20490;-90
2021/07/08 04:08:06;;;;;;;5.50;3.40;;;16.90;99.80;;;;;;4949512;28;20483;-90
2021/07/08 04:10:36;;;;;;;9.33;4.17;;;16.90;99.80;;;;;;4946352;28;20479;-90
2021/07/08 04:13:06;;;;;;;4.20;3.90;;;16.90;99.80;;;;;;4948873;28;21004;-90
2021/07/08 04:15:35;;;;;;;4.13;3.73;;;16.90;99.80;;;;;;4946166;28;20998;-90
2021/07/08 04:18:04;;;;;;;7.87;5.47;;;16.90;99.80;;;;;;4948568;28;20483;-90
2021/07/08 04:20:33;;;;;;;9.33;4.27;;;16.90;99.80;;;;;;4933720;28;20482;-90
2021/07/08 04:23:02;;;;;;;3.90;3.60;;;16.90;99.80;;;;;;4937038;28;20478;-90
2021/07/08 04:25:36;;;;;;;6.40;4.10;;;16.90;99.80;;;;;;4945658;28;20477;-90
2021/07/08 04:28:05;;;;;;;6.90;4.40;;;16.90;99.80;;;;;;4948609;28;20485;-91
2021/07/08 04:30:35;;;;;;;12.33;4.57;;;16.90;99.80;;;;;;4962012;28;20484;-91
2021/07/08 04:33:04;;;;;;;6.07;3.80;;;16.70;99.80;;;;;;4951925;28;20512;-91
2021/07/08 04:35:35;;;;;;;4.83;4.17;;;16.60;99.80;;;;;;4950364;28;20466;-90
2021/07/08 04:38:05;;;;;;;5.13;4.00;;;16.60;99.80;;;;;;4937760;28;20484;-89
2021/07/08 04:40:34;;;;;;;5.17;4.30;;;16.60;99.80;;;;;;4947958;28;21076;-91
2021/07/08 04:43:05;;;;;;;5.77;4.00;;;16.60;99.80;;;;;;4933459;28;21064;-91
2021/07/08 04:45:35;;;;;;;7.13;4.57;;;16.70;99.80;;;;;;4949977;28;20515;-90
2021/07/08 04:48:04;;;;;;;5.30;3.70;;;16.80;99.80;;;;;;4940600;28;20477;-91
2021/07/08 04:50:34;;;;;;;8.23;3.40;;;16.80;99.80;;;;;;4949895;28;21202;-90
2021/07/08 04:53:03;;;;;;;4.73;4.40;;;16.90;99.80;;;;;;4940893;28;20487;-91
2021/07/08 04:55:32;;;;;;;4.20;3.90;;;16.90;99.80;;;;;;4944912;28;20479;-91
2021/07/08 04:58:00;;;;;;;4.03;3.60;;;17.00;99.80;;;;;;4934050;28;20482;-91
2021/07/08 05:00:28;;;;;;;5.57;4.23;;;17.10;99.80;;;;;;4933319;28;20513;-91
2021/07/08 05:02:57;;;;;;;4.50;4.07;;;17.10;99.80;;;;;;4943720;28;20469;-90
2021/07/08 05:05:25;;;;;;;4.50;3.73;;;17.10;99.80;;;;;;4947313;28;20458;-90
2021/07/08 05:07:55;;;;;;;3.83;3.60;;;;;;;;;;4938056;28;20493;-91
2021/07/08 05:10:23;;;;;;;6.30;4.40;;;17.20;99.80;;;;;;4939691;28;20495;-91
2021/07/08 05:12:51;;;;;;;5.20;3.57;;;17.20;99.80;;;;;;4950379;28;20489;-91
2021/07/08 05:15:20;;;;;;;4.10;3.70;;;17.20;99.80;;;;;;4920995;28;20523;-86
2021/07/08 05:17:50;;;;;;;6.90;3.97;;;17.20;99.80;;;;;;4932721;28;20510;-86
2021/07/08 05:20:25;;;;;;;4.20;3.30;;;17.20;99.80;;;;;;4932391;28;21175;-85
2021/07/08 05:22:59;;;;;;;4.90;3.90;;;17.30;99.80;;;;;;4940811;28;20478;-86
2021/07/08 05:25:27;;;;;;;4.00;3.70;;;17.30;99.80;;;;;;4960337;28;20477;-85
2021/07/08 05:27:56;;;;;;;7.50;3.60;;;17.30;99.80;;;;;;4965059;28;21087;-87
2021/07/08 05:30:24;;;;;;;4.40;4.00;;;17.30;99.80;;;;;;4951677;28;20484;-85
2021/07/08 05:32:52;;;;;;;5.20;4.23;;;17.30;99.80;;;;;;4945542;28;20483;-86
2021/07/08 05:35:21;;;;;;;5.60;4.23;;;17.30;99.80;;;;;;4946056;28;20552;-85
2021/07/08 05:37:50;;;;;;;5.43;4.40;;;17.30;99.80;;;;;;4934679;28;21001;-85
2021/07/08 05:40:19;;;;;;;4.90;4.50;;;17.30;99.80;;;;;;4933995;28;20487;-86
2021/07/08 05:42:47;;;;;;;5.13;4.60;;;17.40;99.80;;;;;;4936267;28;20562;-85
2021/07/08 05:45:16;;;;;;;7.47;4.37;;;17.40;99.80;;;;;;4913318;29;20490;-85
2021/07/08 05:47:45;;;;;;;7.03;4.30;;;17.40;99.80;;;;;;4924398;28;20530;-86
2021/07/08 05:50:14;;;;;;;4.73;4.33;;;17.40;99.80;;;;;;4929800;28;20486;-87
2021/07/08 05:52:42;;;;;;;10.93;4.43;;;17.50;99.80;;;;;;4938126;28;21040;-85
2021/07/08 05:55:12;;;;;;;8.80;4.53;;;17.60;99.80;;;;;;4944876;28;20476;-86
2021/07/08 05:57:47;;;;;;;6.53;4.53;;;17.60;99.80;;;;;;4938573;28;20482;-85
2021/07/08 06:00:17;;;;;;;6.63;4.47;;;17.60;99.80;;;;;;4939715;28;20520;-85
2021/07/08 06:02:45;;;;;;;4.47;4.00;;;17.70;99.80;;;;;;4951566;28;20818;-86
2021/07/08 06:05:14;;;;;;;5.33;3.87;;;17.80;99.80;;;;;;4936557;28;20715;-87
2021/07/08 06:07:42;;;;;;;5.90;4.10;;;17.90;99.80;;;;;;4939474;28;20480;-86
2021/07/08 06:10:13;;;;;;;8.70;4.50;;;18.00;99.80;;;;;;4937885;28;20463;-86
2021/07/08 06:12:41;;;;;;;6.10;4.20;;;18.10;99.80;;;;;;4946688;28;20483;-86
2021/07/08 06:15:10;;;;;;;4.57;4.17;;;18.10;99.80;;;;;;4942901;28;20474;-87
2021/07/08 06:17:38;;;;;;;4.37;3.97;;;18.10;99.80;;;;;;4939657;28;20889;-86
2021/07/08 06:20:08;;;;;;;15.40;4.97;;;18.10;99.80;;;;;;4940378;28;20486;-86
2021/07/08 06:22:36;;;;;;;4.20;3.80;;;18.10;99.80;;;;;;4951336;28;20479;-86
2021/07/08 06:25:04;;;;;;;6.93;3.97;;;18.10;99.80;;;;;;4930976;28;20848;-87
2021/07/08 06:31:15;;;;;;;4.73;3.60;;;18.30;99.80;;;;;;4930999;28;20530;-86
2021/07/08 06:33:44;;;;;;;6.57;4.23;;;18.40;99.80;;;;;;4948167;28;20482;-85
2021/07/08 06:36:12;;;;;;;7.40;4.60;;;18.40;99.80;;;;;;4936493;28;20485;-87
2021/07/08 06:38:40;;;;;;;6.03;4.37;;;18.50;99.80;;;;;;4923517;28;21249;-86
2021/07/08 06:41:08;;;;;;;4.83;4.07;;;18.60;99.80;;;;;;4928228;28;20995;-86
2021/07/08 06:43:36;;;;;;;4.70;3.80;;;18.60;99.80;;;;;;4920503;28;20488;-87
2021/07/08 06:46:04;;;;;;;3.50;3.30;;;18.80;99.80;;;;;;4931499;28;20490;-86
2021/07/08 06:48:33;;;;;;;7.57;4.27;;;18.90;99.80;;;;;;4939190;28;20513;-86
2021/07/08 06:51:02;;;;;;;3.80;3.50;;;19.00;99.80;;;;;;4953652;28;20509;-86
2021/07/08 06:53:30;;;;;;;3.53;3.33;;;19.10;99.80;;;;;;4955374;28;20479;-85
2021/07/08 06:55:58;;;;;;;4.53;3.30;;;19.20;99.80;;;;;;4941827;28;20484;-86
2021/07/08 06:58:26;;;;;;;5.63;3.47;;;19.30;99.80;;;;;;4939178;28;20481;-86
2021/07/08 07:00:54;;;;;;;3.53;3.23;;;19.40;99.80;;;;;;4928900;29;20481;-91
2021/07/08 07:03:23;;;;;;;3.90;3.60;;;;;;;;;;4930484;29;20491;-92
2021/07/08 07:05:52;;;;;;;3.80;3.50;;;19.80;99.80;;;;;;4937512;28;20476;-91
2021/07/08 07:08:21;;;;;;;6.63;4.20;;;;;;;;;;4924879;29;20480;-91
2021/07/08 07:10:50;;;;;;;4.57;4.10;;;;;;;;;;4928772;28;21012;-91
2021/07/08 07:13:18;;;;;;;4.43;4.03;;;20.10;99.80;;;;;;4924210;28;20481;-91
2021/07/08 07:15:47;;;;;;;8.40;3.93;;;20.30;99.80;;;;;;4933749;28;20482;-91
2021/07/08 07:18:15;;;;;;;5.27;4.33;;;20.40;99.80;;;;;;4932014;28;20518;-91
2021/07/08 07:20:43;;;;;;;3.60;2.90;;;20.50;99.80;;;;;;4913169;29;20472;-91
2021/07/08 07:23:12;;;;;;;6.37;4.20;;;20.50;99.80;;;;;;4923122;28;20492;-92
2021/07/08 07:25:41;;;;;;;5.73;4.10;;;20.60;99.80;;;;;;4942292;28;21222;-90
2021/07/08 07:28:10;;;;;;;8.43;3.47;;;20.70;99.80;;;;;;4927751;28;20488;-92
2021/07/08 07:30:39;;;;;;;11.63;3.97;;;20.80;99.80;;;;;;4942080;28;21063;-90
2021/07/08 07:33:07;;;;;;;7.23;3.10;;;20.90;99.80;;;;;;4943939;28;20581;-91
2021/07/08 07:35:35;;;;;;;4.47;3.47;;;21.00;99.80;;;;;;4950064;28;20488;-91
2021/07/08 07:38:07;;;;;;;3.60;3.23;;;21.00;99.80;;;;;;4936043;28;20485;-91
2021/07/08 07:40:37;;;;;;;4.27;3.20;;;21.10;99.80;;;;;;4935158;28;20487;-91
2021/07/08 07:43:05;;;;;;;3.67;2.97;;;21.10;99.80;;;;;;4923917;28;20513;-91
2021/07/08 07:45:33;;;;;;;5.47;3.20;;;;;;;;;;4945170;28;20474;-90
2021/07/08 07:48:02;;;;;;;7.87;3.60;;;21.20;99.80;;;;;;4943813;28;20503;-90
2021/07/08 07:50:32;;;;;;;8.50;3.57;;;21.30;99.80;;;;;;4930965;28;20563;-91
2021/07/08 07:53:01;;;;;;;5.03;3.13;;;21.40;99.80;;;;;;4922312;29;20481;-91
2021/07/08 07:55:29;;;;;;;5.70;2.97;;;21.60;99.80;;;;;;4920367;29;21008;-91
2021/07/08 07:58:01;;;;;;;3.50;3.03;;;21.80;99.80;;;;;;4929508;28;20480;-90
2021/07/08 08:00:31;;;;;;;3.90;3.10;;;21.80;99.80;;;;;;4928615;28;21015;-91
2021/07/08 08:02:59;;;;;;;2.93;2.63;;;21.80;99.80;;;;;;4961499;28;20475;-91
2021/07/08 08:05:39;;;;;;;2.73;2.53;;;21.80;99.80;;;;;;4967981;28;20550;-91
2021/07/08 08:10:56;;;;;;;2.60;2.40;;;21.90;99.80;;;;;;4942401;28;20487;-90
2021/07/08 08:13:26;;;;;;;2.80;2.37;;;21.90;99.80;;;;;;4945438;28;20981;-91
2021/07/08 08:15:54;;;;;;;2.93;2.60;;;21.90;99.80;;;;;;4940070;28;20484;-91
2021/07/08 08:18:25;;;;;;;3.27;2.37;;;22.00;99.80;;;;;;4947334;28;20996;-91
2021/07/08 08:20:54;;;;;;;3.40;2.43;;;22.00;99.80;;;;;;4935486;28;20519;-91
2021/07/08 08:23:23;;;;;;;1.97;1.80;;;22.10;99.80;;;;;;4947708;28;20886;-91
2021/07/08 08:25:51;;;;;;;2.53;2.33;;;22.10;99.80;;;;;;4931059;28;20564;-91
2021/07/08 08:28:19;;;;;;;3.17;2.20;;;;;;;;;;4940103;28;20480;-91
2021/07/08 08:30:48;;;;;;;3.97;2.20;;;22.00;99.80;;;;;;4936211;28;20472;-92
2021/07/08 08:33:17;;;;;;;8.53;2.60;;;22.00;99.80;;;;;;4928507;29;20485;-91
2021/07/08 08:35:45;;;;;;;3.57;2.40;;;22.00;99.80;;;;;;4947025;28;20570;-91
2021/07/08 08:38:13;;;;;;;2.33;2.23;;;22.00;99.80;;;;;;4948914;28;20551;-91
2021/07/08 08:40:41;;;;;;;4.23;2.20;;;22.10;99.80;;;;;;4962766;28;20986;-91
2021/07/08 08:43:09;;;;;;;2.53;2.30;;;22.10;99.80;;;;;;4944706;28;20520;-91
2021/07/08 08:45:37;;;;;;;3.03;2.83;;;;;;;;;;4923489;28;20481;-91
2021/07/08 08:48:09;;;;;;;4.67;3.13;;;21.70;99.80;;;;;;4939348;28;20483;-91
2021/07/08 08:50:40;;;;;;;4.13;2.93;;;21.70;99.80;;;;;;4936375;28;20460;-92
2021/07/08 08:53:09;;;;;;;3.73;2.93;;;21.70;99.80;;;;;;4918665;28;20487;-91
2021/07/08 08:55:38;;;;;;;2.90;2.70;;;21.80;99.80;;;;;;4928896;28;20552;-92
2021/07/08 08:58:07;;;;;;;3.07;2.87;;;22.10;99.80;;;;;;4930293;28;20478;-91
2021/07/08 09:00:49;;;;;;;4.07;2.73;;;22.20;99.80;;;;;;4922738;28;20472;-91
2021/07/08 09:03:22;;;;;;;3.77;3.13;;;22.70;99.80;;;;;;4928152;28;20467;-91
2021/07/08 09:06:00;;;;;;;2.53;2.40;;;23.10;99.80;;;;;;4920439;28;20968;-92
2021/07/08 09:08:28;;;;;;;3.20;2.33;;;23.60;99.80;;;;;;4913728;29;20571;-92
2021/07/08 09:11:08;;;;;;;2.90;2.70;;;23.80;99.80;;;;;;4927618;28;20940;-90
2021/07/08 09:14:01;;;;;;;4.00;2.83;;;24.00;99.80;;;;;;4914463;28;20491;-92
2021/07/08 09:16:32;;;;;;;3.20;2.90;;;24.00;99.80;;;;;;4939871;28;20476;-91
2021/07/08 09:19:10;;;;;;;2.50;2.30;;;24.10;99.80;;;;;;4939991;28;20471;-92
2021/07/08 09:21:42;;;;;;;3.50;2.00;;;24.20;99.80;;;;;;4944517;28;20475;-91
2021/07/08 09:24:18;;;;;;;3.13;2.00;;;24.50;99.80;;;;;;4934086;28;20486;-91
2021/07/08 09:26:54;;;;;;;2.10;1.90;;;24.90;99.80;;;;;;4929540;28;20492;-91
2021/07/08 09:29:24;;;;;;;2.10;2.00;;;25.10;99.80;;;;;;4926768;28;20984;-91
2021/07/08 09:31:53;;;;;;;4.83;1.93;;;25.30;98.10;;;;;;4926471;28;20565;-91
2021/07/08 09:34:25;;;;;;;3.50;2.57;;;25.30;97.50;;;;;;4921852;29;20518;-93
2021/07/08 09:37:07;;;;;;;3.30;2.20;;;25.40;97.50;;;;;;4930222;28;20456;-91
2021/07/08 09:39:37;;;;;;;5.13;1.90;;;25.50;96.10;;;;;;4925970;29;20484;-92
2021/07/08 09:42:06;;;;;;;2.00;1.80;;;25.50;95.90;;;;;;4919771;28;20949;-92
2021/07/08 09:44:35;;;;;;;2.20;2.00;;;;;;;;;;4940352;28;20566;-92
2021/07/08 09:47:04;;;;;;;2.30;2.03;;;25.80;95.80;;;;;;4939739;28;20480;-92
2021/07/08 09:49:44;;;;;;;7.17;2.37;;;25.90;96.70;;;;;;4932992;29;20499;-92
2021/07/08 09:52:12;;;;;;;2.80;2.03;;;25.90;98.50;;;;;;4932523;29;20551;-92
2021/07/08 09:57:40;;;;;;;1.90;1.80;;;26.00;96.00;;;;;;4925523;28;20470;-92
2021/07/08 10:00:32;;;;;;;5.43;1.73;;;26.20;96.40;;;;;;4932203;28;20479;-93
2021/07/08 10:03:01;;;;;;;5.53;1.53;;;26.30;96.00;;;;;;4955726;28;20950;-92
2021/07/08 10:05:34;;;;;;;1.70;1.60;;;26.40;94.40;;;;;;4933659;28;20551;-93
2021/07/08 10:08:03;;;;;;;2.50;1.97;;;26.40;94.90;;;;;;4934073;28;20487;-93
2021/07/08 10:10:32;;;;;;;1.93;1.60;;;26.40;94.80;;;;;;4940816;28;20510;-92
2021/07/08 10:13:05;;;;;;;1.67;1.33;;;26.50;93.60;;;;;;4921966;28;20486;-93
2021/07/08 10:15:35;;;;;;;4.40;1.30;;;26.60;92.40;;;;;;4936977;28;20488;-93
2021/07/08 10:18:04;;;;;;;2.10;1.40;;;26.70;92.20;;;;;;4939733;29;20483;-93
2021/07/08 10:20:35;;;;;;;4.73;1.40;;;26.70;92.90;;;;;;4931102;29;20476;-92
2021/07/08 10:23:04;;;;;;;1.53;1.43;;;26.70;93.50;;;;;;4949990;28;21214;-93
2021/07/08 10:25:32;;;;;;;1.67;1.57;;;26.80;92.20;;;;;;4950136;28;20479;-93
2021/07/08 10:28:00;;;;;;;3.07;1.60;;;26.80;91.80;;;;;;4933586;28;20472;-93
2021/07/08 10:30:30;;;;;;;2.67;1.20;;;26.90;90.10;;;;;;4930219;29;20503;-92
2021/07/08 10:33:00;;;;;;;9.60;1.30;;;26.90;88.70;;;;;;4926520;29;20484;-93
2021/07/08 10:35:43;;;;;;;4.13;1.13;;;27.00;89.30;;;;;;4930331;29;20740;-93
2021/07/08 10:38:36;;;;;;;2.03;1.30;;;27.10;89.70;;;;;;4906801;29;20488;-93
2021/07/08 10:41:42;;;;;;;2.50;1.57;;;27.20;91.30;;;;;;4913106;29;20524;-93
2021/07/08 10:44:42;;;;;;;2.50;1.27;;;27.20;90.00;;;;;;4928196;29;20881;-93
2021/07/08 10:47:37;;;;;;;1.47;1.37;;;27.20;88.90;;;;;;4928791;28;20475;-92
2021/07/08 10:50:08;;;;;;;1.63;1.23;;;27.20;90.40;;;;;;4913095;29;20505;-92
2021/07/08 10:52:46;;;;;;;1.63;1.53;;;27.30;90.70;;;;;;4913030;29;20906;-93
2021/07/08 10:55:40;;;;;;;4.20;1.50;;;27.50;88.90;;;;;;4914679;29;20500;-93
2021/07/08 10:58:29;;;;;;;1.30;1.20;;;27.70;88.90;;;;;;4901610;29;20464;-92
2021/07/08 11:00:57;;;;;;;2.23;1.20;;;28.10;87.80;;;;;;4911105;29;20551;-94
2021/07/08 11:03:43;;;;;;;3.20;1.00;;;28.10;86.30;;;;;;4924738;29;20472;-92
2021/07/08 11:06:17;;;;;;;3.30;1.40;;;28.00;85.00;;;;;;4931380;29;20491;-92
2021/07/08 11:09:02;;;;;;;3.60;1.90;;;27.80;88.00;;;;;;4915145;29;20480;-93
2021/07/08 11:12:02;;;;;;;10.33;1.87;;;27.70;87.80;;;;;;4911674;29;20468;-92
2021/07/08 11:14:31;;;;;;;1.47;1.37;;;27.60;89.10;;;;;;4850354;29;20482;-93
2021/07/08 11:17:03;;;;;;;2.17;1.40;;;27.50;89.00;;;;;;4913446;29;20559;-92
2021/07/08 11:19:39;;;;;;;6.47;1.43;;;27.50;88.70;;;;;;4937539;28;20487;-89
2021/07/08 11:22:13;;;;;;;5.43;1.50;;;27.50;89.20;;;;;;4930246;28;20969;-90
2021/07/08 11:24:47;;;;;;;1.57;1.23;;;27.60;88.20;;;;;;4938985;28;20918;-89
2021/07/08 11:27:17;;;;;;;1.27;1.17;;;27.70;88.50;;;;;;4930185;28;20476;-88
2021/07/08 11:29:48;;;;;;;1.47;1.37;;;27.90;87.70;;;;;;4946138;28;21085;-91
2021/07/08 11:32:21;;;;;;;3.80;1.30;;;28.00;87.70;;;;;;4952944;28;20504;-90
2021/07/08 11:34:56;;;;;;;1.53;1.37;;;28.20;86.30;;;;;;4946080;28;20476;-90
2021/07/08 11:37:27;;;;;;;4.30;1.50;;;28.40;86.00;;;;;;4953023;28;20473;-94
2021/07/08 11:39:58;;;;;;;1.73;1.40;;;28.50;86.10;;;;;;4957253;28;20550;-93
2021/07/08 11:42:30;;;;;;;1.27;1.17;;;28.40;84.90;;;;;;4948926;28;20482;-88
2021/07/08 11:45:01;;;;;;;1.40;1.30;;;28.30;86.40;;;;;;4936717;28;20479;-88
2021/07/08 11:47:40;;;;;;;2.60;1.53;;;28.40;85.80;;;;;;4928006;28;20479;-87
2021/07/08 11:50:20;;;;;;;1.77;1.47;;;28.60;84.60;;;;;;4946323;28;20459;-89
2021/07/08 12:49:25;;;;;;;2.80;1.40;;;26.20;88.70;;;;;;4947066;28;21000;-87
2021/07/08 12:51:53;;;;;;;2.77;1.87;;;26.10;89.70;;;;;;4947786;28;20499;-87
2021/07/08 12:54:21;;;;;;;6.37;1.93;;;26.20;91.80;;;;;;4935186;28;20480;-88
2021/07/08 12:57:08;;;;;;;2.10;1.77;;;26.10;90.30;;;;;;4936691;28;20473;-87
2021/07/08 12:59:37;;;;;;;4.80;2.30;;;26.00;92.50;;;;;;4937375;28;20467;-89
2021/07/08 13:02:06;;;;;;;2.17;1.83;;;25.90;92.10;;;;;;4942681;28;21003;-87
2021/07/08 13:04:37;;;;;;;3.40;1.90;;;25.90;91.70;;;;;;4942758;28;20567;-87
2021/07/08 13:07:23;;;;;;;2.67;1.87;;;25.90;92.80;;;;;;4927458;28;20924;-87
2021/07/08 13:09:55;;;;;;;3.77;2.20;;;26.00;93.30;;;;;;4963777;28;20482;-87
2021/07/08 13:12:24;;;;;;;2.60;1.80;;;26.10;94.00;;;;;;4951689;28;20494;-87
2021/07/08 13:14:52;;;;;;;1.67;1.57;;;;;;;;;;4947498;28;20567;-88
2021/07/08 13:17:27;;;;;;;6.40;3.97;;;26.30;90.60;;;;;;4939389;28;20475;-88
2021/07/08 13:20:05;;;;;;;2.90;2.70;;;26.40;89.20;;;;;;4946353;28;20479;-87
2021/07/08 13:22:44;;;;;;;4.07;2.27;;;26.60;88.80;;;;;;4944474;28;20490;-86
2021/07/08 13:25:19;;;;;;;2.10;2.00;;;26.80;89.10;;;;;;4940436;28;20466;-88
2021/07/08 13:27:49;;;;;;;2.13;2.03;;;27.00;86.80;;;;;;4940294;28;21034;-87
2021/07/08 13:30:28;;;;;;;1.97;1.87;;;27.20;85.90;;;;;;4938961;28;20480;-87
2021/07/08 13:33:05;;;;;;;6.33;1.67;;;27.30;83.20;;;;;;4951724;28;20485;-88
2021/07/08 13:35:50;;;;;;;2.20;1.97;;;27.30;83.70;;;;;;4954073;28;20569;-88
2021/07/08 13:38:21;;;;;;;5.47;2.10;;;27.50;83.00;;;;;;4949911;28;20502;-86
2021/07/08 13:41:10;;;;;;;3.30;1.70;;;27.30;86.20;;;;;;4936971;28;20568;-88
2021/07/08 13:43:42;;;;;;;2.60;1.83;;;27.10;84.30;;;;;;4936073;28;20475;-91
2021/07/08 13:46:29;;;;;;;2.13;1.80;;;26.90;87.80;;;;;;4941267;28;20503;-91
2021/07/08 13:49:13;;;;;;;2.60;2.40;;;26.50;86.00;;;;;;4952529;28;20466;-92
2021/07/08 13:51:51;;;;;;;2.00;1.90;;;26.10;91.00;;;;;;4942208;28;20467;-91
2021/07/08 13:54:20;;;;;;;4.33;2.20;;;25.60;91.60;;;;;;4958754;28;20561;-90
2021/07/08 13:59:32;;;;;;;2.80;2.30;;;;;;;;;;4939228;28;20542;-91
2021/07/08 14:02:00;;;;;;;2.83;1.90;;;24.50;95.10;;;;;;4941451;28;20475;-90
2021/07/08 14:04:29;;;;;;;2.60;2.30;;;24.20;98.10;;;;;;4936793;28;20480;-88
2021/07/08 14:06:58;;;;;;;2.90;2.70;;;24.00;99.80;;;;;;4952318;28;20885;-88
2021/07/08 14:09:26;;;;;;;3.33;3.10;;;23.60;99.80;;;;;;4946927;28;20476;-88
2021/07/08 14:11:56;;;;;;;2.53;2.43;;;23.10;99.80;;;;;;4935448;28;20575;-88
2021/07/08 14:14:25;;;;;;;3.30;3.10;;;22.70;99.80;;;;;;4945230;28;20518;-87
2021/07/08 14:16:53;;;;;;;5.67;2.77;;;22.30;99.80;;;;;;4940001;28;20483;-89
2021/07/08 14:19:21;;;;;;;11.43;2.97;;;21.90;99.80;;;;;;4934447;28;20478;-89
2021/07/08 14:21:51;;;;;;;7.50;3.77;;;21.50;99.80;;;;;;4937016;28;20982;-92